Time;durP1;ratioP1;P1;durP2;ratioP2;P2;SDS_P1;SDS_P2;PMS_P1;PMS_P2;Temp;Humidity;BMP_temperature;BMP_pressure;BME280_temperature;BME280_humidity;BME280_pressure;Samples;Min_cycle;Max_cycle;Signal;HPM_P1;HPM_P2
2022/03/18 00:00:00;;;;;;;17.63;8.35;;;2.80;99.90;;;;;;4890885;29;20135;-46
2022/03/18 00:02:26;;;;;;;19.98;9.18;;;2.70;99.90;;;;;;4890554;29;20056;-46
2022/03/18 00:04:54;;;;;;;20.02;8.50;;;2.70;99.90;;;;;;4872552;29;20492;-46
2022/03/18 00:07:21;;;;;;;17.40;7.95;;;2.70;99.90;;;;;;4870254;29;20428;-45
2022/03/18 00:09:47;;;;;;;15.88;8.70;;;2.70;99.90;;;;;;4868722;29;20060;-45
2022/03/18 00:12:13;;;;;;;20.13;8.77;;;2.70;99.90;;;;;;4885625;29;20044;-44
2022/03/18 00:14:39;;;;;;;23.13;9.48;;;2.70;99.90;;;;;;4885097;29;20060;-44
2022/03/18 00:17:09;;;;;;;18.42;8.82;;;2.70;99.90;;;;;;4867746;29;20048;-44
2022/03/18 00:19:36;;;;;;;17.45;9.27;;;2.80;99.90;;;;;;4884308;29;20132;-45
2022/03/18 00:22:03;;;;;;;18.92;9.68;;;2.80;99.90;;;;;;4884030;29;20056;-44
2022/03/18 00:24:31;;;;;;;19.20;9.80;;;2.80;99.90;;;;;;4884175;29;20434;-45
2022/03/18 00:26:58;;;;;;;25.30;11.05;;;2.80;99.90;;;;;;4884273;29;20064;-43
2022/03/18 00:29:25;;;;;;;17.60;9.13;;;2.90;99.90;;;;;;4884560;29;20057;-46
2022/03/18 00:31:51;;;;;;;20.92;10.63;;;2.90;99.90;;;;;;4883442;29;20475;-47
2022/03/18 00:34:18;;;;;;;19.20;10.15;;;2.90;99.90;;;;;;4885119;29;20115;-47
2022/03/18 00:36:44;;;;;;;17.67;8.95;;;3.00;99.90;;;;;;4890917;29;20070;-44
2022/03/18 00:39:09;;;;;;;19.35;9.60;;;3.00;99.90;;;;;;4883737;29;20563;-44
2022/03/18 00:41:35;;;;;;;19.45;9.90;;;3.00;99.90;;;;;;4868379;29;20096;-44
2022/03/18 00:44:01;;;;;;;21.52;9.50;;;3.00;99.90;;;;;;4884638;29;20056;-43
2022/03/18 00:46:27;;;;;;;19.80;9.48;;;3.00;99.90;;;;;;4885283;29;20045;-44
2022/03/18 00:54:23;;;;;;;15.05;7.80;;;2.90;99.90;;;;;;4883361;29;20052;-45
2022/03/18 00:56:49;;;;;;;18.45;8.55;;;2.90;99.90;;;;;;4886729;29;20052;-44
2022/03/18 00:59:15;;;;;;;21.42;8.30;;;2.80;99.90;;;;;;4884827;29;20049;-45
2022/03/18 01:01:41;;;;;;;18.05;7.93;;;2.80;99.90;;;;;;4867066;29;20053;-45
2022/03/18 01:04:07;;;;;;;18.33;8.52;;;2.70;99.90;;;;;;4884956;29;20068;-44
2022/03/18 01:06:33;;;;;;;20.00;9.02;;;2.80;99.90;;;;;;4882819;29;20053;-44
2022/03/18 01:08:58;;;;;;;26.25;9.65;;;2.80;99.90;;;;;;4889158;29;20400;-44
2022/03/18 01:11:24;;;;;;;16.98;8.90;;;2.80;99.90;;;;;;4885898;29;20048;-44
2022/03/18 01:13:50;;;;;;;17.83;8.77;;;2.80;99.90;;;;;;4890317;29;20554;-44
2022/03/18 01:16:16;;;;;;;19.00;8.88;;;2.80;99.90;;;;;;4890095;29;20679;-47
2022/03/18 01:18:48;;;;;;;18.42;9.27;;;2.80;99.90;;;;;;4888149;29;20056;-45
2022/03/18 01:21:19;;;;;;;16.38;9.38;;;2.80;99.90;;;;;;4888328;29;20096;-43
2022/03/18 01:23:44;;;;;;;15.60;9.10;;;2.80;99.90;;;;;;4889169;29;20060;-44
2022/03/18 01:26:10;;;;;;;17.85;8.63;;;2.70;99.90;;;;;;4888768;29;20049;-45
2022/03/18 01:28:36;;;;;;;18.88;8.63;;;2.70;99.90;;;;;;4889300;29;20452;-44
2022/03/18 01:31:02;;;;;;;19.58;8.70;;;2.70;99.90;;;;;;4887772;29;20050;-44
2022/03/18 01:33:27;;;;;;;18.05;8.80;;;2.70;99.90;;;;;;4888894;29;20069;-45
2022/03/18 01:35:53;;;;;;;16.17;8.77;;;2.60;99.90;;;;;;4894626;29;20059;-43
2022/03/18 01:38:19;;;;;;;16.35;8.45;;;2.60;99.90;;;;;;4889234;29;20048;-44
2022/03/18 01:40:44;;;;;;;21.92;10.02;;;2.60;99.90;;;;;;4887735;29;20048;-44
2022/03/18 01:43:11;;;;;;;17.88;9.60;;;2.60;99.90;;;;;;4889131;29;20515;-45
2022/03/18 01:45:37;;;;;;;21.92;10.30;;;2.70;99.90;;;;;;4888535;29;20489;-44
2022/03/18 01:48:04;;;;;;;15.90;8.48;;;2.70;99.90;;;;;;4888656;29;20500;-44
2022/03/18 01:50:30;;;;;;;28.20;10.80;;;2.70;99.90;;;;;;4889297;29;20063;-44
2022/03/18 01:52:57;;;;;;;22.27;9.75;;;2.70;99.90;;;;;;4872144;29;20067;-44
2022/03/18 01:55:24;;;;;;;18.65;9.55;;;2.60;99.90;;;;;;4888619;29;20144;-44
2022/03/18 01:57:50;;;;;;;28.65;9.77;;;2.60;99.90;;;;;;4886992;29;20067;-42
2022/03/18 02:00:19;;;;;;;22.40;10.27;;;2.50;99.90;;;;;;4886270;29;20104;-45
2022/03/18 02:02:46;;;;;;;16.38;9.18;;;2.50;99.90;;;;;;4887677;29;20048;-44
2022/03/18 02:05:11;;;;;;;22.20;9.68;;;2.50;99.90;;;;;;4871269;29;20571;-45
2022/03/18 02:07:37;;;;;;;18.83;9.63;;;2.50;99.90;;;;;;4887794;29;20536;-44
2022/03/18 02:10:05;;;;;;;23.30;10.40;;;2.50;99.90;;;;;;4888637;29;20052;-45
2022/03/18 02:12:31;;;;;;;20.73;9.77;;;2.50;99.90;;;;;;4871245;29;20064;-45
2022/03/18 02:14:56;;;;;;;15.73;9.15;;;2.50;99.90;;;;;;4888871;29;20168;-43
2022/03/18 02:17:23;;;;;;;22.52;10.73;;;2.50;99.90;;;;;;4888598;29;20063;-45
2022/03/18 02:19:49;;;;;;;20.70;9.48;;;2.50;99.90;;;;;;4888586;29;20052;-44
2022/03/18 02:22:25;;;;;;;21.95;9.68;;;2.50;99.90;;;;;;4891769;29;20805;-45
2022/03/18 02:24:53;;;;;;;18.55;9.75;;;2.50;99.90;;;;;;4885182;29;20052;-48
2022/03/18 02:27:20;;;;;;;17.23;9.60;;;2.50;99.90;;;;;;4887954;29;20049;-45
2022/03/18 02:29:46;;;;;;;23.33;9.75;;;2.60;99.90;;;;;;4888424;29;20053;-43
2022/03/18 02:32:16;;;;;;;17.60;9.30;;;2.60;99.90;;;;;;4887426;29;20056;-45
2022/03/18 02:34:42;;;;;;;16.75;10.40;;;2.60;99.90;;;;;;4890237;29;20055;-45
2022/03/18 02:37:08;;;;;;;21.67;10.98;;;2.60;99.90;;;;;;4889410;29;20163;-44
2022/03/18 02:39:34;;;;;;;22.13;9.90;;;2.60;99.90;;;;;;4888344;29;20060;-44
2022/03/18 02:42:00;;;;;;;16.77;9.13;;;2.60;99.90;;;;;;4886566;29;20400;-44
2022/03/18 02:44:26;;;;;;;17.23;8.35;;;2.50;99.90;;;;;;4886776;29;20052;-44
2022/03/18 02:46:52;;;;;;;18.20;9.15;;;2.50;99.90;;;;;;4887012;29;20088;-45
2022/03/18 02:49:19;;;;;;;17.80;8.70;;;2.40;99.90;;;;;;4888246;29;20121;-44
2022/03/18 02:51:46;;;;;;;18.08;8.55;;;2.30;99.90;;;;;;4887054;29;20531;-46
2022/03/18 02:54:12;;;;;;;15.95;9.52;;;2.30;99.90;;;;;;4887513;29;20059;-44
2022/03/18 02:56:39;;;;;;;19.33;9.98;;;2.30;99.90;;;;;;4869061;29;20485;-43
2022/03/18 02:59:05;;;;;;;21.92;9.52;;;2.30;99.90;;;;;;4886891;29;20602;-43
2022/03/18 03:01:31;;;;;;;19.60;8.90;;;2.30;99.90;;;;;;4886983;29;20147;-44
2022/03/18 03:03:58;;;;;;;17.77;9.65;;;2.20;99.90;;;;;;4869394;29;20131;-44
2022/03/18 03:09:11;;;;;;;16.58;9.27;;;2.30;99.90;;;;;;4886916;29;20063;-45
2022/03/18 03:11:37;;;;;;;15.45;9.15;;;2.20;99.90;;;;;;4869685;29;20064;-45
2022/03/18 03:14:03;;;;;;;11.60;7.60;;;2.20;99.90;;;;;;4886942;29;20056;-45
2022/03/18 03:16:30;;;;;;;16.60;7.80;;;2.20;99.90;;;;;;4868915;29;20048;-48
2022/03/18 03:18:56;;;;;;;17.23;7.90;;;2.10;99.90;;;;;;4886751;29;20048;-44
2022/03/18 03:21:22;;;;;;;14.68;8.45;;;2.10;99.90;;;;;;4885893;29;20810;-43
2022/03/18 03:23:48;;;;;;;15.98;8.75;;;2.10;99.90;;;;;;4887245;29;20531;-45
2022/03/18 03:26:14;;;;;;;13.95;8.55;;;2.00;99.90;;;;;;4887567;29;20929;-44
2022/03/18 03:28:41;;;;;;;18.15;10.43;;;2.00;99.90;;;;;;4888935;29;20499;-46
2022/03/18 03:31:07;;;;;;;19.88;9.25;;;2.00;99.90;;;;;;4889273;29;20407;-44
2022/03/18 03:33:33;;;;;;;16.17;8.90;;;2.00;99.90;;;;;;4889197;29;20056;-45
2022/03/18 03:35:59;;;;;;;15.07;8.93;;;2.00;99.90;;;;;;4892571;29;20091;-49
2022/03/18 03:38:25;;;;;;;18.55;10.00;;;1.90;99.90;;;;;;4885763;29;20132;-42
2022/03/18 03:40:51;;;;;;;15.63;8.43;;;1.90;99.90;;;;;;4885976;29;20087;-45
2022/03/18 03:43:18;;;;;;;14.50;8.00;;;1.90;99.90;;;;;;4887573;29;20051;-45
2022/03/18 03:45:44;;;;;;;18.33;9.68;;;1.90;99.90;;;;;;4885825;29;20159;-43
2022/03/18 03:48:13;;;;;;;17.50;9.40;;;1.90;99.90;;;;;;4886207;29;20048;-45
2022/03/18 03:50:42;;;;;;;21.83;9.88;;;1.90;99.90;;;;;;4881597;29;20055;-43
2022/03/18 03:53:10;;;;;;;14.85;8.95;;;1.90;99.90;;;;;;4886248;29;20053;-48
2022/03/18 03:55:40;;;;;;;19.35;9.38;;;1.80;99.90;;;;;;4885977;29;20068;-44
2022/03/18 03:58:07;;;;;;;13.60;8.98;;;1.80;99.90;;;;;;4868560;29;20083;-44
2022/03/18 04:00:36;;;;;;;19.42;8.85;;;1.80;99.90;;;;;;4885888;29;20112;-47
2022/03/18 04:03:03;;;;;;;18.38;9.38;;;1.80;99.90;;;;;;4884631;29;20163;-45
2022/03/18 04:05:30;;;;;;;15.60;9.73;;;1.80;99.90;;;;;;4886098;29;20504;-44
2022/03/18 04:07:56;;;;;;;15.63;9.63;;;1.90;99.90;;;;;;4885098;29;20131;-43
2022/03/18 04:10:22;;;;;;;15.57;10.10;;;1.90;99.90;;;;;;4886180;29;20052;-44
2022/03/18 04:12:47;;;;;;;14.02;9.98;;;1.90;99.90;;;;;;4886008;29;20529;-46
2022/03/18 04:15:13;;;;;;;15.02;9.65;;;1.90;99.90;;;;;;4886232;29;20052;-46
2022/03/18 04:17:44;;;;;;;14.60;10.45;;;1.90;99.90;;;;;;4885396;29;20509;-45
2022/03/18 04:20:12;;;;;;;17.73;10.07;;;1.90;99.90;;;;;;4883612;29;20357;-44
2022/03/18 04:22:39;;;;;;;15.45;9.57;;;2.00;99.90;;;;;;4860801;29;20095;-46
2022/03/18 04:25:05;;;;;;;18.42;9.90;;;2.00;99.90;;;;;;4886105;29;20055;-46
2022/03/18 04:27:32;;;;;;;17.58;10.48;;;2.10;99.90;;;;;;4885401;29;20100;-44
2022/03/18 04:29:58;;;;;;;18.33;11.13;;;2.10;99.90;;;;;;4885834;29;20052;-43
2022/03/18 04:32:23;;;;;;;18.13;11.38;;;2.20;99.90;;;;;;4886096;29;20104;-44
2022/03/18 04:34:49;;;;;;;20.70;10.73;;;2.20;99.90;;;;;;4888367;29;20056;-43
2022/03/18 04:37:15;;;;;;;19.25;10.77;;;2.20;99.90;;;;;;4885746;29;20407;-45
2022/03/18 04:39:41;;;;;;;19.85;11.52;;;2.20;99.90;;;;;;4886305;29;20052;-45
2022/03/18 04:42:07;;;;;;;16.60;11.02;;;2.10;99.90;;;;;;4889110;29;20438;-43
2022/03/18 04:44:33;;;;;;;15.68;10.68;;;2.10;99.90;;;;;;4890572;29;20060;-45
2022/03/18 04:47:02;;;;;;;17.88;10.82;;;2.10;99.90;;;;;;4874491;29;20067;-46
2022/03/18 04:49:28;;;;;;;16.30;11.50;;;2.10;99.90;;;;;;4891155;29;20110;-44
2022/03/18 04:51:53;;;;;;;17.85;10.88;;;2.10;99.90;;;;;;4874408;29;20060;-45
2022/03/18 04:54:19;;;;;;;13.20;9.75;;;2.00;99.90;;;;;;4891680;29;20145;-46
2022/03/18 04:59:30;;;;;;;19.30;11.43;;;2.00;99.90;;;;;;4890943;29;20068;-45
2022/03/18 05:01:55;;;;;;;13.77;10.63;;;2.00;99.90;;;;;;4891934;29;20056;-44
2022/03/18 05:04:21;;;;;;;16.15;10.75;;;2.00;99.90;;;;;;4873725;29;20114;-44
2022/03/18 05:06:47;;;;;;;17.40;10.38;;;1.90;99.90;;;;;;4883677;29;20151;-43
2022/03/18 05:09:13;;;;;;;14.60;10.57;;;1.80;99.90;;;;;;4891346;29;20424;-44
2022/03/18 05:11:38;;;;;;;17.80;10.82;;;1.80;99.90;;;;;;4874168;29;20052;-43
2022/03/18 05:14:04;;;;;;;14.85;10.30;;;1.80;99.90;;;;;;4891815;29;20083;-44
2022/03/18 05:16:31;;;;;;;16.55;11.52;;;1.70;99.90;;;;;;4891923;29;20045;-46
2022/03/18 05:18:57;;;;;;;13.90;10.95;;;1.70;99.90;;;;;;4891161;29;20112;-42
2022/03/18 05:21:23;;;;;;;20.38;12.20;;;1.70;99.90;;;;;;4891893;29;20044;-44
2022/03/18 05:23:48;;;;;;;19.17;12.27;;;1.70;99.90;;;;;;4888355;29;20056;-43
2022/03/18 05:26:14;;;;;;;20.90;12.73;;;1.70;99.90;;;;;;4891806;29;20179;-44
2022/03/18 05:28:41;;;;;;;17.90;12.43;;;1.80;99.90;;;;;;4875032;29;20156;-44
2022/03/18 05:31:07;;;;;;;19.15;13.93;;;1.80;99.90;;;;;;4891704;29;20462;-44
2022/03/18 05:33:33;;;;;;;18.92;12.50;;;1.70;99.90;;;;;;4892667;29;20053;-45
2022/03/18 05:35:58;;;;;;;24.83;13.48;;;1.80;99.90;;;;;;4892392;29;20045;-43
2022/03/18 05:38:25;;;;;;;19.52;12.32;;;1.70;99.90;;;;;;4891809;29;20396;-44
2022/03/18 05:40:52;;;;;;;18.45;12.50;;;1.70;99.90;;;;;;4874596;29;20519;-44
2022/03/18 05:43:18;;;;;;;21.70;13.20;;;1.70;99.90;;;;;;4891627;29;20048;-47
2022/03/18 05:45:43;;;;;;;19.00;12.27;;;1.60;99.90;;;;;;4892775;29;20061;-46
2022/03/18 05:48:09;;;;;;;16.08;12.10;;;1.60;99.90;;;;;;4876609;29;20055;-43
2022/03/18 05:50:35;;;;;;;17.92;12.50;;;1.60;99.90;;;;;;4894231;29;20075;-45
2022/03/18 05:53:01;;;;;;;18.73;13.00;;;1.60;99.90;;;;;;4891159;29;20181;-50
2022/03/18 05:56:52;;;;;;;21.50;13.43;;;1.60;99.90;;;;;;4889338;29;20155;-44
2022/03/18 05:58:17;;;;;;;20.23;12.38;;;1.60;99.90;;;;;;4889151;29;20099;-44
2022/03/18 06:00:43;;;;;;;16.83;12.30;;;1.60;99.90;;;;;;4888115;29;20522;-45
2022/03/18 06:03:10;;;;;;;18.02;12.27;;;1.70;99.90;;;;;;4888890;29;20088;-44
2022/03/18 06:05:36;;;;;;;17.85;13.13;;;1.70;99.90;;;;;;4887696;29;20052;-45
2022/03/18 06:13:30;;;;;;;17.90;13.18;;;1.90;99.90;;;;;;4887891;29;20095;-47
2022/03/18 06:15:56;;;;;;;18.20;13.90;;;2.10;99.90;;;;;;4887517;29;20510;-43
2022/03/18 06:18:22;;;;;;;20.27;14.85;;;2.40;99.90;;;;;;4888497;29;20052;-45
2022/03/18 06:20:51;;;;;;;22.27;14.60;;;2.80;99.90;;;;;;4887855;29;20052;-44
2022/03/18 06:23:17;;;;;;;16.70;13.52;;;3.40;99.90;;;;;;4887589;29;20072;-42
2022/03/18 06:25:43;;;;;;;20.88;13.93;;;3.90;99.90;;;;;;4886925;29;20053;-45
2022/03/18 06:28:09;;;;;;;16.52;13.23;;;4.50;99.90;;;;;;4887966;29;20053;-43
2022/03/18 06:30:35;;;;;;;16.23;12.55;;;5.10;99.90;;;;;;4886407;29;20055;-43
2022/03/18 06:33:01;;;;;;;17.33;13.07;;;5.80;99.90;;;;;;4887689;29;20052;-45
2022/03/18 06:35:27;;;;;;;17.27;13.13;;;6.40;99.90;;;;;;4886759;29;20551;-45
2022/03/18 06:37:54;;;;;;;16.23;12.68;;;6.90;99.90;;;;;;4869988;29;20499;-44
2022/03/18 06:40:21;;;;;;;15.73;12.95;;;7.40;99.90;;;;;;4870391;29;20143;-47
2022/03/18 06:42:47;;;;;;;15.90;11.20;;;7.90;99.90;;;;;;4886824;29;20606;-44
2022/03/18 06:45:13;;;;;;;17.35;12.07;;;8.40;99.90;;;;;;4886271;29;20559;-44
2022/03/18 06:47:39;;;;;;;17.10;12.07;;;8.70;99.90;;;;;;4887248;29;20052;-47
2022/03/18 06:50:06;;;;;;;14.15;11.00;;;8.80;99.90;;;;;;4888017;29;20052;-46
2022/03/18 06:52:33;;;;;;;13.90;11.05;;;8.70;99.90;;;;;;4870964;29;20056;-47
2022/03/18 06:54:59;;;;;;;16.08;11.18;;;8.40;99.90;;;;;;4871290;29;20060;-45
2022/03/18 06:57:24;;;;;;;18.42;11.52;;;8.00;99.90;;;;;;4888375;29;20052;-45
2022/03/18 06:59:50;;;;;;;15.68;12.65;;;7.60;99.90;;;;;;4890781;29;20052;-45
2022/03/18 07:02:16;;;;;;;17.85;12.88;;;7.30;99.90;;;;;;4888129;29;20057;-44
2022/03/18 07:04:42;;;;;;;15.85;13.77;;;7.10;99.90;;;;;;4887505;29;20515;-44
2022/03/18 07:07:07;;;;;;;17.52;12.30;;;7.00;99.90;;;;;;4887061;29;20536;-44
2022/03/18 07:09:33;;;;;;;17.85;12.68;;;7.00;99.90;;;;;;4885546;29;20055;-45
2022/03/18 07:12:00;;;;;;;17.10;12.00;;;7.00;99.90;;;;;;4887726;29;20112;-44
2022/03/18 07:14:26;;;;;;;16.27;12.93;;;7.10;99.90;;;;;;4889866;29;20060;-45
2022/03/18 07:19:39;;;;;;;19.98;14.27;;;7.10;99.90;;;;;;4885614;29;20068;-45
2022/03/18 07:22:05;;;;;;;21.05;15.20;;;7.20;99.90;;;;;;4887756;29;20456;-45
2022/03/18 07:24:31;;;;;;;20.60;15.30;;;7.30;99.90;;;;;;4887550;29;20076;-44
2022/03/18 07:26:57;;;;;;;21.13;15.02;;;7.30;99.90;;;;;;4887028;29;20060;-44
2022/03/18 07:29:23;;;;;;;18.98;15.05;;;7.50;99.90;;;;;;4886304;29;20052;-43
2022/03/18 07:31:51;;;;;;;18.58;13.98;;;7.60;99.90;;;;;;4878212;29;20060;-45
2022/03/18 07:34:16;;;;;;;18.52;14.73;;;7.60;99.90;;;;;;4886403;29;20047;-44
2022/03/18 07:36:42;;;;;;;18.10;15.07;;;7.70;99.90;;;;;;4885935;29;20052;-45
2022/03/18 07:39:08;;;;;;;20.35;15.80;;;7.90;99.90;;;;;;4886146;29;20141;-44
2022/03/18 07:41:35;;;;;;;16.55;14.60;;;8.00;99.90;;;;;;4886525;29;20056;-47
2022/03/18 07:44:01;;;;;;;19.00;15.10;;;8.10;99.90;;;;;;4886768;29;20060;-47
2022/03/18 07:46:27;;;;;;;19.92;14.38;;;8.20;99.90;;;;;;4882856;29;20512;-46
2022/03/18 07:48:53;;;;;;;21.67;16.05;;;8.30;99.90;;;;;;4889091;29;20172;-45
2022/03/18 07:51:18;;;;;;;19.20;15.50;;;8.50;99.90;;;;;;4870713;29;20200;-44
2022/03/18 07:53:44;;;;;;;18.30;16.25;;;8.60;99.90;;;;;;4886270;29;20110;-44
2022/03/18 07:56:10;;;;;;;18.45;14.73;;;8.80;99.90;;;;;;4885951;29;20384;-48
2022/03/18 07:58:35;;;;;;;17.65;14.68;;;9.00;99.90;;;;;;4884965;29;20492;-46
2022/03/18 08:01:01;;;;;;;20.30;13.75;;;9.20;99.90;;;;;;4886087;29;20044;-45
2022/03/18 08:03:27;;;;;;;19.38;14.23;;;9.40;99.90;;;;;;4884996;29;20041;-45
2022/03/18 08:05:53;;;;;;;18.95;13.82;;;9.50;99.90;;;;;;4868302;29;20052;-46
2022/03/18 08:08:18;;;;;;;18.52;13.73;;;9.60;99.90;;;;;;4885501;29;20056;-46
2022/03/18 08:10:44;;;;;;;18.65;13.38;;;9.80;99.90;;;;;;4887144;29;20060;-46
2022/03/18 08:13:10;;;;;;;18.60;13.88;;;9.90;99.90;;;;;;4890040;29;20136;-46
2022/03/18 08:15:36;;;;;;;22.50;12.88;;;10.10;99.90;;;;;;4885893;29;20194;-46
2022/03/18 08:18:02;;;;;;;22.27;13.27;;;10.20;99.90;;;;;;4885322;29;20080;-47
2022/03/18 08:20:29;;;;;;;19.25;12.65;;;10.40;99.90;;;;;;4864934;29;20060;-47
2022/03/18 08:22:56;;;;;;;20.33;12.07;;;10.40;99.90;;;;;;4886423;29;20053;-45
2022/03/18 08:25:22;;;;;;;20.75;11.18;;;10.40;99.90;;;;;;4867890;29;20044;-46
2022/03/18 08:27:49;;;;;;;23.98;12.02;;;10.50;99.90;;;;;;4885461;29;20052;-45
2022/03/18 08:30:15;;;;;;;20.40;12.02;;;10.50;99.90;;;;;;4884543;29;20061;-47
2022/03/18 08:32:41;;;;;;;18.70;11.55;;;10.50;99.90;;;;;;4886124;29;20052;-46
2022/03/18 08:35:08;;;;;;;20.55;11.30;;;10.70;99.90;;;;;;4887690;29;20060;-44
2022/03/18 08:40:19;;;;;;;23.23;11.82;;;10.90;99.90;;;;;;4880339;29;20084;-45
2022/03/18 08:42:45;;;;;;;17.15;10.98;;;10.90;99.90;;;;;;4885937;29;20053;-46
2022/03/18 08:45:10;;;;;;;22.70;11.15;;;11.00;99.90;;;;;;4867689;29;20456;-47
2022/03/18 08:47:37;;;;;;;23.73;9.80;;;11.00;99.90;;;;;;4885625;29;20088;-45
2022/03/18 08:50:04;;;;;;;23.40;10.35;;;11.00;99.90;;;;;;4867516;29;20067;-46
2022/03/18 08:52:29;;;;;;;20.02;10.57;;;11.00;99.90;;;;;;4885098;29;20048;-47
2022/03/18 08:54:55;;;;;;;25.98;11.05;;;10.80;99.90;;;;;;4885965;29;20096;-47
2022/03/18 08:57:21;;;;;;;19.48;10.25;;;10.90;99.90;;;;;;4884754;29;20057;-46
2022/03/18 08:59:47;;;;;;;19.42;10.20;;;11.10;99.90;;;;;;4883127;29;20059;-48
2022/03/18 09:02:12;;;;;;;19.00;10.48;;;11.10;99.90;;;;;;4885125;29;20052;-48
2022/03/18 09:04:38;;;;;;;19.10;10.57;;;11.20;99.90;;;;;;4885104;29;20242;-47
2022/03/18 09:07:04;;;;;;;24.98;11.38;;;11.30;99.90;;;;;;4884357;29;20495;-48
2022/03/18 09:09:31;;;;;;;19.80;11.23;;;11.40;99.90;;;;;;4885862;29;20071;-46
2022/03/18 09:11:57;;;;;;;20.73;10.52;;;11.30;99.90;;;;;;4892397;29;20578;-46
2022/03/18 09:14:23;;;;;;;20.33;11.90;;;11.30;99.90;;;;;;4890409;29;20460;-47
2022/03/18 09:16:49;;;;;;;15.48;11.35;;;11.30;99.90;;;;;;4895157;29;20468;-48
2022/03/18 09:19:20;;;;;;;18.70;11.30;;;11.40;99.90;;;;;;4890242;29;20052;-47
2022/03/18 09:21:58;;;;;;;25.48;10.93;;;11.40;99.90;;;;;;4892472;29;20059;-47
2022/03/18 09:24:23;;;;;;;16.27;9.95;;;11.50;99.90;;;;;;4894580;29;20064;-50
2022/03/18 09:26:51;;;;;;;21.38;11.15;;;11.70;99.90;;;;;;4892116;29;20468;-47
2022/03/18 09:29:16;;;;;;;19.83;10.93;;;11.70;99.90;;;;;;4892268;29;20055;-47
2022/03/18 09:31:42;;;;;;;19.50;10.93;;;11.70;99.90;;;;;;4904547;29;20135;-48
2022/03/18 09:34:08;;;;;;;20.27;11.88;;;11.70;99.90;;;;;;4874870;29;20060;-47
2022/03/18 09:36:37;;;;;;;22.02;11.20;;;11.70;99.90;;;;;;4891275;29;20139;-48
2022/03/18 09:39:03;;;;;;;21.52;11.65;;;11.70;99.90;;;;;;4887949;29;20214;-46
2022/03/18 09:41:30;;;;;;;26.15;12.73;;;11.90;99.90;;;;;;4889138;29;20052;-48
2022/03/18 09:43:55;;;;;;;18.63;11.82;;;12.00;99.90;;;;;;4889327;29;20061;-48
2022/03/18 09:46:22;;;;;;;23.65;11.82;;;12.10;99.90;;;;;;4890215;29;20052;-50
2022/03/18 09:48:47;;;;;;;16.95;10.32;;;12.30;99.90;;;;;;4888789;29;20060;-51
2022/03/18 09:51:16;;;;;;;21.70;11.70;;;12.40;99.90;;;;;;4887420;29;20387;-46
2022/03/18 09:53:42;;;;;;;20.20;12.07;;;12.50;99.90;;;;;;4887863;29;20103;-46
2022/03/18 09:56:08;;;;;;;18.80;11.73;;;12.60;99.90;;;;;;4888793;29;20188;-46
2022/03/18 09:58:35;;;;;;;14.55;10.32;;;12.70;99.90;;;;;;4887852;29;20177;-47
2022/03/18 10:01:01;;;;;;;15.10;8.95;;;12.80;99.90;;;;;;4888410;29;20131;-47
2022/03/18 10:03:53;;;;;;;16.90;9.80;;;12.90;99.90;;;;;;4871364;29;20535;-48
2022/03/18 10:06:27;;;;;;;17.02;9.20;;;13.00;99.90;;;;;;4868166;29;20091;-48
2022/03/18 10:08:54;;;;;;;19.17;10.05;;;13.00;99.90;;;;;;4902374;29;20064;-46
2022/03/18 10:11:33;;;;;;;22.58;8.98;;;13.10;99.90;;;;;;4887712;29;20048;-48
2022/03/18 10:14:07;;;;;;;19.27;9.55;;;13.20;99.90;;;;;;4870825;29;20507;-46
2022/03/18 10:16:39;;;;;;;23.45;9.32;;;13.30;99.90;;;;;;4887227;29;20507;-47
2022/03/18 10:19:19;;;;;;;18.75;10.15;;;13.30;99.90;;;;;;4884163;29;20176;-46
2022/03/18 10:22:00;;;;;;;18.27;9.07;;;13.50;99.90;;;;;;4884129;29;20056;-49
2022/03/18 10:24:28;;;;;;;18.67;8.57;;;13.60;99.90;;;;;;4890373;29;20098;-47
2022/03/18 10:27:12;;;;;;;19.55;7.93;;;13.60;99.90;;;;;;4887113;29;20044;-47
2022/03/18 10:29:55;;;;;;;18.60;8.50;;;13.70;99.90;;;;;;4882247;29;20175;-47
2022/03/18 10:32:22;;;;;;;15.93;6.95;;;13.80;99.90;;;;;;4884698;29;20570;-47
2022/03/18 10:37:49;;;;;;;16.42;8.20;;;14.00;99.90;;;;;;4886653;29;20572;-46
2022/03/18 10:40:30;;;;;;;20.00;8.95;;;14.00;99.90;;;;;;4883259;29;20526;-48
2022/03/18 10:43:01;;;;;;;18.02;9.07;;;14.00;99.90;;;;;;4886280;29;20570;-47
2022/03/18 10:45:27;;;;;;;17.00;8.88;;;14.10;99.90;;;;;;4888067;29;20138;-46
2022/03/18 10:47:53;;;;;;;18.05;9.18;;;14.10;99.90;;;;;;4889307;29;20586;-46
2022/03/18 10:50:29;;;;;;;21.13;8.95;;;14.20;99.90;;;;;;4885627;29;20192;-53
2022/03/18 10:52:58;;;;;;;13.93;7.82;;;14.30;99.90;;;;;;4885896;29;20057;-47
2022/03/18 10:55:28;;;;;;;12.30;8.15;;;14.30;99.90;;;;;;4879817;29;20528;-48
2022/03/18 10:58:06;;;;;;;23.67;11.00;;;14.30;99.90;;;;;;4887114;29;20056;-48
2022/03/18 11:00:34;;;;;;;17.00;7.40;;;14.20;99.90;;;;;;4879485;29;20053;-47
2022/03/18 11:03:01;;;;;;;21.45;8.98;;;14.30;99.90;;;;;;4868979;29;20052;-48
2022/03/18 11:05:34;;;;;;;15.15;8.20;;;14.40;99.90;;;;;;4884201;29;20491;-48
2022/03/18 11:08:02;;;;;;;17.35;8.13;;;14.40;99.90;;;;;;4895858;29;20048;-47
2022/03/18 11:13:15;;;;;;;40.40;14.25;;;14.50;99.90;;;;;;4887019;29;20124;-49
2022/03/18 11:15:43;;;;;;;16.23;7.78;;;14.50;99.90;;;;;;4854573;29;20053;-49
2022/03/18 11:18:13;;;;;;;14.10;7.30;;;14.60;99.90;;;;;;4887653;29;20103;-48
2022/03/18 11:20:43;;;;;;;16.70;7.13;;;14.70;99.90;;;;;;4887428;29;20086;-48
2022/03/18 11:23:24;;;;;;;19.75;8.13;;;14.70;99.90;;;;;;4886966;29;20499;-46
2022/03/18 11:25:55;;;;;;;18.90;8.02;;;14.80;99.90;;;;;;4886876;29;20389;-47
2022/03/18 11:28:22;;;;;;;17.65;7.28;;;14.80;99.90;;;;;;4887232;29;20075;-47
2022/03/18 11:31:00;;;;;;;15.85;6.70;;;15.00;99.90;;;;;;4886447;29;20045;-46
2022/03/18 11:33:26;;;;;;;18.90;7.63;;;15.10;99.90;;;;;;4869732;29;20092;-47
2022/03/18 11:35:52;;;;;;;17.40;7.50;;;15.20;99.90;;;;;;4887147;29;20108;-47
2022/03/18 11:38:28;;;;;;;17.17;7.53;;;15.30;99.90;;;;;;4886565;29;20052;-47
2022/03/18 11:41:05;;;;;;;15.43;7.38;;;15.30;99.90;;;;;;4871641;29;20666;-47
2022/03/18 11:43:42;;;;;;;11.20;6.15;;;15.30;99.90;;;;;;4885905;29;20551;-46
2022/03/18 11:49:05;;;;;;;19.70;7.10;;;14.90;99.90;;;;;;4886705;29;20044;-48
2022/03/18 11:51:34;;;;;;;13.18;6.60;;;14.90;99.90;;;;;;4885169;29;20535;-48
2022/03/18 11:54:03;;;;;;;17.42;7.47;;;15.00;99.90;;;;;;4886491;29;20059;-49
2022/03/18 11:56:49;;;;;;;17.98;7.35;;;15.00;99.90;;;;;;4885882;29;20511;-47
2022/03/18 11:59:24;;;;;;;23.80;7.20;;;14.80;99.90;;;;;;4882819;29;20044;-47
2022/03/18 12:02:11;;;;;;;15.07;5.47;;;14.80;99.90;;;;;;4886293;29;20056;-47
2022/03/18 12:04:40;;;;;;;15.68;6.22;;;14.50;99.90;;;;;;4892188;29;20112;-47
2022/03/18 12:07:09;;;;;;;22.27;7.97;;;14.40;99.90;;;;;;4884562;29;20064;-49
2022/03/18 12:09:55;;;;;;;22.73;7.05;;;14.40;99.90;;;;;;4888257;29;20800;-47
2022/03/18 12:12:28;;;;;;;15.20;6.43;;;14.40;99.90;;;;;;4827559;29;20061;-49
2022/03/18 12:14:57;;;;;;;16.65;6.18;;;14.40;99.90;;;;;;4827640;29;20062;-48
2022/03/18 12:17:24;;;;;;;15.70;6.40;;;14.60;99.90;;;;;;4825166;29;20068;-48
2022/03/18 12:19:55;;;;;;;12.18;5.38;;;14.70;99.90;;;;;;4825758;29;20056;-48
2022/03/18 12:22:22;;;;;;;15.65;5.40;;;14.90;99.90;;;;;;4825916;29;20118;-48
2022/03/18 12:24:53;;;;;;;20.90;6.72;;;14.90;99.90;;;;;;4827291;29;20517;-47
2022/03/18 12:27:21;;;;;;;23.30;8.55;;;14.90;99.90;;;;;;4825908;29;20061;-47
2022/03/18 12:29:47;;;;;;;647.47;76.18;;;14.80;99.90;;;;;;4825169;29;20065;-49
2022/03/18 12:32:16;;;;;;;17.20;7.63;;;13.50;99.90;;;;;;4823959;29;20433;-47
2022/03/18 12:34:51;;;;;;;22.42;8.45;;;12.80;99.90;;;;;;4826115;29;20061;-48
2022/03/18 12:37:31;;;;;;;20.73;7.55;;;12.20;99.90;;;;;;4822558;29;20082;-46
2022/03/18 12:40:11;;;;;;;20.02;6.35;;;12.10;99.90;;;;;;4822092;29;20049;-50
2022/03/18 12:42:52;;;;;;;15.52;6.88;;;12.10;99.90;;;;;;4811573;29;20066;-46
2022/03/18 12:45:38;;;;;;;20.35;7.80;;;12.20;99.90;;;;;;4824889;29;20057;-48
2022/03/18 12:48:13;;;;;;;18.65;7.43;;;12.40;99.90;;;;;;4818904;29;20196;-48
2022/03/18 12:50:44;;;;;;;18.83;5.93;;;12.80;99.90;;;;;;4881477;29;20057;-46
2022/03/18 12:53:19;;;;;;;13.88;6.22;;;13.10;99.90;;;;;;4883167;29;20496;-49
2022/03/18 12:55:49;;;;;;;15.65;5.68;;;13.30;99.90;;;;;;4885936;29;20059;-47
2022/03/18 12:58:15;;;;;;;17.20;5.47;;;13.50;99.90;;;;;;4882106;29;20179;-47
2022/03/18 13:00:56;;;;;;;14.00;4.88;;;13.70;99.90;;;;;;4884820;29;20131;-49
2022/03/18 13:03:34;;;;;;;13.70;4.88;;;13.90;99.90;;;;;;4887016;29;20166;-51
2022/03/18 13:06:20;;;;;;;14.32;4.28;;;14.30;99.90;;;;;;4887813;29;20606;-47
2022/03/18 13:08:53;;;;;;;13.98;5.13;;;14.50;99.90;;;;;;4888607;29;20487;-47
2022/03/18 13:11:20;;;;;;;15.02;5.60;;;14.80;99.90;;;;;;4890188;29;20096;-48